Latest Weather Observations for Lord Howe Island

IDN60801

Issued at 10:03 pm EST Sunday 25 September 2016 (issued every 30 minutes, with the page automatically refreshed every 10 minutes)

About weather observations | Map of weather stations | Latest weather observations for NSW | Other Formats
Station Details ID: 200839 Name: LORD HOWE ISLAND AERO Lat: -31.54 Lon: 159.08 Height: 5.0 m
Data from the previous 72 hours. | See also: Recent months at Lord Howe Island
Date/Time
EST
Temp
°C
App
Temp
°C
Dew
Point
°C
Rel
Hum
%
Delta-T
°C
Wind Press
QNH
hPa
Press
MSL
hPa
Rain since
9am
mm
Dir  Spd
km/h
Gust
km/h
Spd
kts
Gust
kts
25/10:00pm 16.7 15.8 13.7 82 1.7 WNW 11 19 6 10 1005.2 - 6.8
25/09:30pm 15.7 17.2 14.7 94 0.6 CALM 0 0 0 0 1005.4 - 6.8
25/09:00pm 15.4 16.4 14.3 93 0.6 SSW 2 6 1 3 1005.6 - 6.8
25/08:30pm 15.0 16.4 14.3 96 0.4 CALM 0 0 0 0 1005.7 1005.7 6.8
25/08:00pm 14.7 16.0 14.0 96 0.4 CALM 0 0 0 0 1005.4 - 6.8
25/07:30pm 14.3 14.0 13.2 93 0.6 S 7 9 4 5 1005.4 - 6.8
25/07:00pm 14.6 14.3 13.3 92 0.7 S 7 9 4 5 1005.1 - 6.8
25/06:30pm 14.7 15.9 13.8 94 0.5 CALM 0 0 0 0 1005.1 - 6.8
25/06:05pm 14.7 14.9 13.1 90 0.9 W 4 7 2 4 1004.9 - 6.8
25/06:00pm 14.7 15.4 13.3 91 0.8 NW 2 7 1 4 1004.8 - 6.8
25/05:30pm 15.5 14.4 13.2 86 1.3 NW 11 17 6 9 1005.2 1005.2 4.2
25/05:00pm 17.7 17.5 15.8 89 1.1 N 11 17 6 9 1005.1 - 1.0
25/04:30pm 18.7 18.4 15.5 81 1.9 N 11 17 6 9 1004.9 - 0.0
25/04:00pm 18.9 17.8 15.3 79 2.1 NE 15 19 8 10 1004.3 - 0.0
25/03:30pm 19.3 20.3 15.4 78 2.3 N 4 13 2 7 1004.4 - 0.0
25/03:00pm 19.2 19.7 15.1 77 2.4 NW 6 11 3 6 1004.8 - 0.0
25/02:30pm 19.6 19.4 14.6 73 2.9 NNW 9 17 5 9 1005.1 1005.1 0.0
25/02:00pm 19.9 19.5 14.2 69 3.3 N 9 15 5 8 1005.2 - 0.0
25/01:30pm 19.9 19.7 13.6 67 3.6 NNW 7 15 4 8 1005.4 - 0.0
25/01:00pm 19.6 18.6 13.5 68 3.5 N 11 17 6 9 1005.8 - 0.0
25/12:30pm 19.8 19.7 13.9 69 3.4 NW 7 17 4 9 1006.2 - 0.0
25/12:00pm 19.2 18.8 14.0 72 3.0 NNW 9 17 5 9 1006.6 - 0.0
25/11:30am 19.6 19.3 14.3 71 3.1 N 9 15 5 8 1007.1 1007.1 0.0
25/11:00am 19.9 19.2 14.4 70 3.2 WNW 11 15 6 8 1007.9 - 0.0
25/10:30am 19.3 18.9 14.1 72 3.0 W 9 13 5 7 1008.0 - 0.0
25/10:00am 19.4 19.0 14.0 71 3.1 W 9 11 5 6 1008.3 - 0.0
25/09:30am 19.2 18.7 13.8 71 3.1 W 9 11 5 6 1008.5 - 0.0
25/09:00am 19.6 19.4 14.6 73 2.9 W 9 13 5 7 1008.9 - 0.0
25/08:30am 19.1 19.1 14.1 73 2.9 WSW 7 9 4 5 1008.9 1008.9 0.0
25/08:00am 18.8 18.6 13.7 72 2.9 NW 7 9 4 5 1009.1 - 0.0
25/07:53am 18.9 19.4 14.0 73 2.8 WNW 4 9 2 5 1009.1 - 0.0
25/07:39am 18.4 19.4 14.4 77 2.3 WSW 2 7 1 4 1009.2 - 0.0
25/07:30am 18.2 18.4 14.2 77 2.3 W 6 7 3 4 1009.4 - 0.0
25/07:00am 17.7 19.2 14.6 82 1.8 CALM 0 0 0 0 1009.1 - 0.0
25/06:30am 16.6 18.0 14.3 86 1.3 CALM 0 0 0 0 1009.2 - 0.0
25/06:00am 15.0 16.2 13.9 93 0.6 CALM 0 0 0 0 1009.1 - 0.0
25/05:46am 13.8 14.8 13.3 97 0.3 CALM 0 0 0 0 1009.1 - 0.0
25/05:30am 12.6 13.2 11.9 95 0.4 CALM 0 0 0 0 1008.9 1008.9 0.0
25/05:00am 12.5 13.0 11.7 95 0.4 CALM 0 0 0 0 1008.7 - 0.0
25/04:55am 12.4 13.0 11.8 96 0.3 CALM 0 0 0 0 1008.6 - 0.0
25/04:30am 13.2 14.0 12.5 95 0.4 CALM 0 0 0 0 1008.6 - 0.0
25/04:00am 12.9 13.6 12.2 95 0.4 CALM 0 0 0 0 1008.5 - 0.0
25/03:30am 13.5 14.4 13.0 97 0.3 CALM 0 0 0 0 1008.3 - 0.0
25/03:26am 13.4 14.3 12.9 97 0.3 CALM 0 0 0 0 1008.3 - 0.0
25/03:07am 12.6 13.2 11.9 95 0.4 CALM 0 0 0 0 1008.2 - 0.0
25/03:00am 13.0 13.7 12.1 94 0.5 CALM 0 0 0 0 1008.2 - 0.0
25/02:30am 13.9 14.9 13.2 96 0.4 CALM 0 0 0 0 1008.1 1008.1 0.0
25/02:00am 13.4 14.2 12.7 95 0.4 CALM 0 0 0 0 1008.2 - 0.0
25/01:30am 14.2 15.2 13.1 93 0.6 CALM 0 0 0 0 1008.5 - 0.0
25/01:00am 14.4 15.4 13.1 92 0.7 CALM 0 0 0 0 1008.9 - 0.0
25/12:30am 14.6 14.8 13.0 90 0.9 S 4 9 2 5 1009.2 - 0.0
25/12:00am 15.7 16.1 13.6 87 1.2 SSW 4 9 2 5 1009.5 - 0.0
 
Date/Time
EST
Temp
°C
App
Temp
°C
Dew
Point
°C
Rel
Hum
%
Delta-T
°C
Wind Press
QNH
hPa
Press
MSL
hPa
Rain since
9am
mm
Dir  Spd
km/h
Gust
km/h
Spd
kts
Gust
kts
24/11:30pm 16.5 16.0 13.9 84 1.5 SSW 9 13 5 7 1009.5 1009.5 0.0
24/11:00pm 16.5 16.0 13.7 83 1.6 SSW 9 11 5 6 1009.6 - 0.0
24/10:30pm 16.9 16.4 13.9 82 1.7 SSW 9 13 5 7 1009.9 - 0.0
24/10:00pm 17.6 17.1 13.9 79 2.1 SW 9 13 5 7 1010.1 - 0.0
24/09:30pm 17.5 17.1 14.0 80 2.0 SSW 9 13 5 7 1010.3 - 0.0
24/09:00pm 17.2 17.1 14.0 81 1.8 SSW 7 13 4 7 1010.2 - 0.0
24/08:30pm 16.7 16.7 13.7 82 1.7 SSW 6 7 3 4 1010.0 1010.0 0.0
24/08:00pm 17.3 16.7 13.6 79 2.1 SSW 9 13 5 7 1010.0 - 0.0
24/07:30pm 17.2 16.7 13.7 80 2.0 SSW 9 13 5 7 1009.8 - 0.0
24/07:00pm 17.7 16.8 13.8 78 2.2 SSW 11 19 6 10 1009.5 - 0.0
24/06:30pm 17.2 16.7 13.9 81 1.9 SSW 9 15 5 8 1009.0 - 0.0
24/06:00pm 17.7 17.2 13.7 77 2.3 SSW 9 20 5 11 1008.6 - 0.0
24/05:30pm 17.9 16.2 13.7 76 2.4 SSW 15 22 8 12 1008.5 1008.5 0.0
24/05:00pm 18.3 17.2 14.3 77 2.3 SSW 13 20 7 11 1008.3 - 0.0
24/04:30pm 18.6 17.2 14.5 77 2.4 SW 15 26 8 14 1008.1 - 0.0
24/04:00pm 18.9 17.1 14.4 75 2.6 SW 17 24 9 13 1008.1 - 0.0
24/03:30pm 19.4 17.9 15.2 76 2.5 SW 17 26 9 14 1007.9 - 0.0
24/03:00pm 19.4 17.8 15.0 75 2.6 SW 17 24 9 13 1007.8 - 0.0
24/02:30pm 19.7 17.4 14.7 73 2.9 SW 20 30 11 16 1007.7 1007.7 0.0
24/02:00pm 19.8 17.7 15.2 75 2.7 SW 20 28 11 15 1007.7 - 0.0
24/01:30pm 19.9 17.9 15.5 76 2.6 SW 20 30 11 16 1007.9 - 0.0
24/01:00pm 20.0 18.0 15.6 76 2.6 SW 20 32 11 17 1007.9 - 0.0
24/12:30pm 19.9 17.8 15.2 74 2.8 SW 20 30 11 16 1008.0 - 0.0
24/12:00pm 19.7 17.1 14.9 74 2.8 SW 22 32 12 17 1008.1 - 0.0
24/11:30am 19.9 16.9 14.8 72 3.0 SW 24 33 13 18 1008.2 1008.2 0.0
24/11:00am 19.8 17.0 15.4 76 2.6 SW 24 32 13 17 1008.5 - 0.0
24/10:30am 19.7 16.6 14.4 71 3.1 SW 24 32 13 17 1008.7 - 0.0
24/10:00am 19.7 16.9 14.2 70 3.2 SW 22 33 12 18 1008.8 - 0.0
24/09:30am 19.8 16.8 14.9 73 2.9 SW 24 37 13 20 1008.9 - 0.0
24/09:00am 19.6 16.8 14.4 72 3.0 SW 22 30 12 16 1008.8 - 0.0
24/08:30am 19.4 16.8 14.8 75 2.7 SW 22 32 12 17 1008.7 1008.7 1.6
24/08:00am 19.5 17.4 14.7 74 2.8 SW 19 26 10 14 1008.6 - 1.6
24/07:30am 19.2 17.1 14.7 75 2.6 SW 19 28 10 15 1008.6 - 1.6
24/07:00am 18.9 16.3 13.8 72 2.9 SW 20 32 11 17 1008.4 - 1.6
24/06:30am 18.8 16.2 13.9 73 2.8 SW 20 32 11 17 1008.0 - 1.6
24/06:00am 18.3 15.9 13.7 74 2.6 SW 19 28 10 15 1007.6 - 1.6
24/05:30am 18.1 15.5 13.3 73 2.7 SW 19 26 10 14 1007.3 1007.3 1.6
24/05:00am 17.9 15.3 13.9 77 2.3 SW 20 32 11 17 1007.1 - 1.6
24/04:30am 18.0 15.3 13.4 74 2.6 SW 20 28 11 15 1006.8 - 1.6
24/04:00am 17.8 14.9 14.1 79 2.1 SW 22 32 12 17 1006.4 - 1.6
24/03:30am 17.8 15.1 13.6 76 2.4 SW 20 33 11 18 1006.1 - 1.6
24/03:00am 17.7 14.9 13.1 74 2.6 SW 20 30 11 16 1005.8 - 1.6
24/02:30am 17.6 15.0 13.2 75 2.5 SSW 19 33 10 18 1005.7 1005.7 1.6
24/02:00am 17.5 14.7 13.2 76 2.4 SW 20 39 11 21 1005.7 - 1.6
24/01:30am 17.5 14.8 13.4 77 2.3 SW 20 33 11 18 1005.7 - 1.6
24/01:00am 17.6 14.5 13.5 77 2.3 SW 22 33 12 18 1005.8 - 1.6
24/12:30am 17.5 14.8 13.4 77 2.3 SW 20 33 11 18 1005.6 - 1.6
24/12:00am 17.4 14.3 13.3 77 2.3 SW 22 33 12 18 1005.6 - 1.6
 
Date/Time
EST
Temp
°C
App
Temp
°C
Dew
Point
°C
Rel
Hum
%
Delta-T
°C
Wind Press
QNH
hPa
Press
MSL
hPa
Rain since
9am
mm
Dir  Spd
km/h
Gust
km/h
Spd
kts
Gust
kts
23/11:41pm 17.2 13.9 14.1 82 1.8 SW 24 37 13 20 1005.6 - 1.6
23/11:30pm 16.7 12.4 14.4 86 1.3 WSW 30 43 16 23 1005.7 1005.7 1.6
23/11:28pm 16.6 11.9 14.3 86 1.3 WSW 32 43 17 23 1005.7 - 1.6
23/11:00pm 17.7 14.9 13.1 74 2.6 SW 20 32 11 17 1005.6 - 1.6
23/10:30pm 17.9 13.6 12.1 69 3.2 SW 26 41 14 22 1005.6 - 1.6
23/10:00pm 17.7 13.4 11.9 69 3.2 SW 26 39 14 21 1005.7 - 1.6
23/09:30pm 17.6 13.7 12.0 69 3.1 SW 24 33 13 18 1005.5 - 1.6
23/09:00pm 17.5 13.8 12.7 73 2.7 SW 24 35 13 19 1005.5 - 1.6
23/08:30pm 17.5 13.5 12.9 74 2.6 SW 26 39 14 21 1005.2 1005.2 1.6
23/08:00pm 17.6 13.2 12.8 73 2.7 SW 28 43 15 23 1004.7 - 1.6
23/07:53pm 17.6 13.0 13.4 76 2.4 SW 30 43 16 23 1004.7 - 1.6
23/07:30pm 17.7 13.6 13.7 77 2.3 SW 28 44 15 24 1004.3 - 1.6
23/07:26pm 17.6 13.6 14.1 80 2.0 SW 28 43 15 23 1004.3 - 1.6
23/07:00pm 17.8 13.4 14.0 78 2.2 SW 30 43 16 23 1004.0 - 1.6
23/06:30pm 18.1 13.5 14.5 79 2.1 SW 32 43 17 23 1003.7 - 1.6
23/06:00pm 18.2 14.5 14.9 81 1.9 WSW 28 41 15 22 1003.3 - 1.6
23/05:45pm 18.4 12.8 14.4 77 2.3 WSW 37 56 20 30 1003.2 - 1.4
23/05:30pm 18.8 13.5 15.2 79 2.1 WSW 37 46 20 25 1002.9 1002.9 1.4
23/05:00pm 18.8 13.4 14.9 78 2.3 WSW 37 44 20 24 1002.5 - 1.4
23/04:30pm 19.0 14.5 14.9 77 2.4 WSW 32 41 17 22 1002.2 - 1.4
23/04:00pm 19.4 15.4 15.2 76 2.5 WSW 30 41 16 22 1002.1 - 1.4
23/03:35pm 19.2 14.2 16.0 82 1.9 WSW 37 56 20 30 1002.0 - 1.4
23/03:30pm 18.5 12.6 15.6 83 1.7 WSW 41 56 22 30 1002.0 - 1.4
23/03:00pm 19.9 15.4 15.5 76 2.6 W 33 50 18 27 1002.0 - 1.4
23/02:30pm 19.6 17.2 16.3 81 2.0 W 24 41 13 22 1002.2 1002.2 1.2
23/02:17pm 18.0 15.1 16.0 88 1.2 W 26 52 14 28 1002.5 - 1.2
23/02:14pm 19.4 16.7 14.6 74 2.8 W 22 35 12 19 1002.2 - 0.0
23/02:00pm 20.4 17.4 14.8 70 3.3 W 24 37 13 20 1002.5 - 0.0
23/01:30pm 20.3 17.1 14.3 68 3.5 W 24 37 13 20 1002.9 - 0.0
23/01:00pm 21.1 18.0 15.6 71 3.3 W 26 39 14 21 1003.4 - 0.0
23/12:30pm 21.5 18.5 14.7 65 4.0 W 24 35 13 19 1003.8 - 0.0
23/12:00pm 20.8 18.1 13.5 63 4.2 WNW 20 35 11 19 1004.2 - 0.0
23/11:30am 20.4 17.7 13.0 62 4.2 WNW 19 28 10 15 1004.6 1004.6 0.0
23/11:00am 21.5 18.5 12.5 56 5.1 WNW 20 33 11 18 1005.2 - 0.0
23/10:30am 21.4 19.2 13.2 59 4.7 WNW 17 32 9 17 1005.4 - 0.0
23/10:00am 21.1 18.7 12.6 58 4.8 WNW 17 30 9 16 1006.0 - 0.0
23/09:30am 20.6 18.5 12.5 59 4.6 WNW 15 22 8 12 1006.2 - 0.0
23/09:00am 20.7 19.1 14.0 65 3.9 NW 15 28 8 15 1006.3 - 0.0
23/08:30am 19.9 17.7 13.4 66 3.7 WNW 17 28 9 15 1006.4 1006.4 2.0
23/08:00am 19.6 17.5 12.3 62 4.1 WNW 15 24 8 13 1006.6 - 2.0
23/07:30am 19.4 18.0 12.2 63 4.0 WNW 11 20 6 11 1006.5 - 2.0
23/07:00am 18.7 17.2 13.0 69 3.2 WNW 13 20 7 11 1006.6 - 2.0
23/06:30am 19.1 16.9 12.1 64 3.9 WNW 15 20 8 11 1006.6 - 2.0
23/06:00am 18.7 16.1 13.2 70 3.1 W 19 22 10 12 1006.3 - 2.0
23/05:30am 18.0 14.6 12.4 70 3.1 W 22 28 12 15 1006.1 1006.1 2.0
23/05:00am 17.9 14.4 12.3 70 3.1 W 22 26 12 14 1005.9 - 2.0
23/04:30am 18.0 15.3 13.4 74 2.6 WSW 20 30 11 16 1005.8 - 2.0
23/04:00am 17.8 14.4 13.6 76 2.4 W 24 30 13 16 1005.8 - 2.0
23/03:30am 18.5 14.6 13.4 72 2.9 W 26 32 14 17 1005.5 - 1.6
23/03:00am 18.6 14.9 12.7 68 3.3 W 24 32 13 17 1005.7 - 1.6
23/02:30am 18.5 13.5 12.2 66 3.5 W 30 35 16 19 1005.7 1005.7 1.6
23/02:00am 18.6 14.1 12.7 68 3.3 W 28 32 15 17 1005.9 - 1.6
23/01:30am 18.6 13.7 12.7 68 3.3 W 30 35 16 19 1006.3 - 1.6
23/01:00am 18.8 14.5 13.3 70 3.1 WSW 28 35 15 19 1006.4 - 1.6
23/12:30am 18.8 14.3 12.6 67 3.5 W 28 35 15 19 1006.6 - 1.6
23/12:00am 18.8 14.3 12.6 67 3.5 W 28 33 15 18 1006.9 - 1.6
 
Date/Time
EST
Temp
°C
App
Temp
°C
Dew
Point
°C
Rel
Hum
%
Delta-T
°C
Wind Press
QNH
hPa
Press
MSL
hPa
Rain since
9am
mm
Dir  Spd
km/h
Gust
km/h
Spd
kts
Gust
kts
22/11:30pm 18.8 14.7 12.8 68 3.4 W 26 30 14 16 1006.9 1006.9 1.6
22/11:00pm 18.7 15.5 13.2 70 3.1 W 22 28 12 15 1007.1 - 1.6
22/10:30pm 18.7 15.7 12.4 67 3.5 W 20 24 11 13 1007.3 - 1.6
22/10:00pm 19.0 15.4 13.0 68 3.4 W 24 32 13 17 1007.4 - 1.6

Other Formats:

Comma delimited format used in spreadsheet applications
http://www.bom.gov.au/fwo/IDN60801/IDN60801.94995.axf

JavaScript Object Notation format (JSON) in row-major order
http://www.bom.gov.au/fwo/IDN60801/IDN60801.94995.json